Mustafa Dayi — TCZF2 — position and weather

sailwx.info

Track history (hours):
 
Tides and Currents Weather Stations Pressure Air Temp Water Temp Dewpoint Dewpoint Depression Visibility Wind Speed Wind Dir Waves Ship Positions

Mustafa Dayi

Last reported at 2016-Jul-27 16:34 UTC. Time now 2016-Jul-27 17:20 UTC.
Position N 33°50' E 031°45'.

Length 183 m; draft 8.2 m.

Type: Cargo ship. MMSI: 271042433.

Date/timePositionNaut miles runAvg speedWind from/ knotsBaromVisibWave heightAir tempDewpointWater temp
2016-Jul-27 16:34N 33°50' E 031°45'1414.2
2016-Jul-27 15:33N 33°40' E 031°57'1414.0
2016-Jul-27 14:33N 33°30' E 032°09'1414.0
2016-Jul-27 13:33N 33°21' E 032°22'1414.2
2016-Jul-27 12:33N 33°11' E 032°34'1414.4
2016-Jul-27 11:33N 33°01' E 032°46'1414.2
2016-Jul-27 10:33N 32°51' E 032°59'1714.3
2016-Jul-27 09:24N 32°40' E 033°13'1214.5
2016-Jul-27 08:33N 32°31' E 033°23'1814.8
2016-Jul-27 07:21N 32°19' E 033°38'1214.9
2016-Jul-27 06:33N 32°11' E 033°49'1514.5
2016-Jul-27 05:33N 32°04' E 034°04'1614.6
2016-Jul-27 04:29N 31°57' E 034°20'17 3.3
2016-Jul-26 23:13N 31°49' E 034°39'0 0.0
2016-Jul-26 13:27N 31°49' E 034°39'0 0.0
2016-Jul-26 12:29N 31°49' E 034°39'3 0.3
2016-Jul-25 23:28N 31°52' E 034°36'13 2.1
2016-Jul-25 17:03N 32°05' E 034°33'713.6
2016-Jul-25 16:33N 32°12' E 034°35'1313.5
2016-Jul-25 15:34N 32°25' E 034°40'1313.2
2016-Jul-25 14:34N 32°37' E 034°45'1313.2
2016-Jul-25 13:34N 32°50' E 034°49'1110.7
2016-Jul-25 12:33N 32°50' E 035°01'1 1.0
2016-Jul-25 11:31N 32°49' E 035°01'0 0.0
2016-Jul-25 10:28N 32°49' E 035°01'0 0.0
2016-Jul-25 09:33N 32°49' E 035°01'0 0.0
2016-Jul-25 08:33N 32°49' E 035°01'0 0.0
2016-Jul-25 07:33N 32°49' E 035°01'0 0.0
2016-Jul-25 06:32N 32°49' E 035°01'0 0.0
2016-Jul-25 05:28N 32°49' E 035°01'0 0.0
2016-Jul-25 04:33N 32°49' E 035°01'0 0.0
2016-Jul-25 03:33N 32°49' E 035°01'0 0.0
2016-Jul-25 02:32N 32°49' E 035°01'0 0.0
2016-Jul-25 01:32N 32°49' E 035°01'0 0.0
2016-Jul-25 00:29N 32°49' E 035°01'0 0.0
2016-Jul-24 23:31N 32°49' E 035°01'0 0.0
2016-Jul-24 22:31N 32°49' E 035°01'0 0.0
2016-Jul-24 21:33N 32°49' E 035°01'0 0.0
2016-Jul-24 20:33N 32°49' E 035°01'2 2.3
2016-Jul-24 19:33N 32°51' E 035°00'9 9.0
2016-Jul-24 18:33N 32°53' E 034°50'3115.5
2016-Jul-24 16:33N 32°60' E 034°13'1413.3
2016-Jul-24 15:27N 33°08' E 033°59'1717.2
2016-Jul-24 14:28N 33°25' E 034°04'1616.8
2016-Jul-24 13:33N 33°40' E 034°08'1616.5
2016-Jul-24 12:33N 33°56' E 034°12'1616.3
2016-Jul-24 11:33N 34°12' E 034°17'1716.2
2016-Jul-24 10:31N 34°28' E 034°22'  
Track history (hours):
 
Tides and Currents Weather Stations Pressure Air Temp Water Temp Dewpoint Dewpoint Depression Visibility Wind Speed Wind Dir Waves Ship Positions

Mustafa Dayi

Last reported at 2016-Jul-27 16:34 UTC. Time now 2016-Jul-27 17:20 UTC.
Position N 33°50' E 031°45'.

Length 183 m; draft 8.2 m.

Type: Cargo ship. MMSI: 271042433.

Date/timePositionNaut miles runAvg speedWind from/ knotsBaromVisibWave heightAir tempDewpointWater temp
2016-Jul-27 16:34N 33°50' E 031°45'1414.2
2016-Jul-27 15:33N 33°40' E 031°57'1414.0
2016-Jul-27 14:33N 33°30' E 032°09'1414.0
2016-Jul-27 13:33N 33°21' E 032°22'1414.2
2016-Jul-27 12:33N 33°11' E 032°34'1414.4
2016-Jul-27 11:33N 33°01' E 032°46'1414.2
2016-Jul-27 10:33N 32°51' E 032°59'1714.3
2016-Jul-27 09:24N 32°40' E 033°13'1214.5
2016-Jul-27 08:33N 32°31' E 033°23'1814.8
2016-Jul-27 07:21N 32°19' E 033°38'1214.9
2016-Jul-27 06:33N 32°11' E 033°49'1514.5
2016-Jul-27 05:33N 32°04' E 034°04'1614.6
2016-Jul-27 04:29N 31°57' E 034°20'17 3.3
2016-Jul-26 23:13N 31°49' E 034°39'0 0.0
2016-Jul-26 13:27N 31°49' E 034°39'0 0.0
2016-Jul-26 12:29N 31°49' E 034°39'3 0.3
2016-Jul-25 23:28N 31°52' E 034°36'13 2.1
2016-Jul-25 17:03N 32°05' E 034°33'713.6
2016-Jul-25 16:33N 32°12' E 034°35'1313.5
2016-Jul-25 15:34N 32°25' E 034°40'1313.2
2016-Jul-25 14:34N 32°37' E 034°45'1313.2
2016-Jul-25 13:34N 32°50' E 034°49'1110.7
2016-Jul-25 12:33N 32°50' E 035°01'1 1.0
2016-Jul-25 11:31N 32°49' E 035°01'0 0.0
2016-Jul-25 10:28N 32°49' E 035°01'0 0.0
2016-Jul-25 09:33N 32°49' E 035°01'0 0.0
2016-Jul-25 08:33N 32°49' E 035°01'0 0.0
2016-Jul-25 07:33N 32°49' E 035°01'0 0.0
2016-Jul-25 06:32N 32°49' E 035°01'0 0.0
2016-Jul-25 05:28N 32°49' E 035°01'0 0.0
2016-Jul-25 04:33N 32°49' E 035°01'0 0.0
2016-Jul-25 03:33N 32°49' E 035°01'0 0.0
2016-Jul-25 02:32N 32°49' E 035°01'0 0.0
2016-Jul-25 01:32N 32°49' E 035°01'0 0.0
2016-Jul-25 00:29N 32°49' E 035°01'0 0.0
2016-Jul-24 23:31N 32°49' E 035°01'0 0.0
2016-Jul-24 22:31N 32°49' E 035°01'0 0.0
2016-Jul-24 21:33N 32°49' E 035°01'0 0.0
2016-Jul-24 20:33N 32°49' E 035°01'2 2.3
2016-Jul-24 19:33N 32°51' E 035°00'9 9.0
2016-Jul-24 18:33N 32°53' E 034°50'3115.5
2016-Jul-24 16:33N 32°60' E 034°13'1413.3
2016-Jul-24 15:27N 33°08' E 033°59'1717.2
2016-Jul-24 14:28N 33°25' E 034°04'1616.8
2016-Jul-24 13:33N 33°40' E 034°08'1616.5
2016-Jul-24 12:33N 33°56' E 034°12'1616.3
2016-Jul-24 11:33N 34°12' E 034°17'1716.2
2016-Jul-24 10:31N 34°28' E 034°22'  

Dump ship's entire track history